Terminal Aerodrome Forecast
Issued by NWS Wichita, KS

Home | Current Version | Previous Version | Text Only | Print | Product List | Glossary Off
Versions: 1 2 3 4 5 6 7 8 9 10 11 12 13 14 15 16 17 18 19 20 21 22 23 24 25 26 27 28

000
FTUS43 KICT 272032 AAA
TAFICT
TAF AMD
KICT 272032Z 2721/2818 12008KT 1 1/2SM -SN OVC020
     FM272300 12010KT P6SM OVC020
     FM281200 14010KT 5SM -SN OVC020
     FM281400 16014KT 2SM -SN OVC010=

USA.gov is the U.S. government's official web portal to all federal, state and local government web resources and services.